Time;durP1;ratioP1;P1;durP2;ratioP2;P2;SDS_P1;SDS_P2;PMS_P1;PMS_P2;Temp;Humidity;BMP_temperature;BMP_pressure;BME280_temperature;BME280_humidity;BME280_pressure;Samples;Min_cycle;Max_cycle;Signal;HPM_P1;HPM_P2
2023/07/02 00:02:00;;;;;;;11.85;5.10;;;;;;;;;;5018099;28;20030;-80
2023/07/02 00:04:26;;;;;;;9.95;5.72;;;;;;;;;;5035634;28;20036;-80
2023/07/02 00:06:51;;;;;;;9.75;5.13;;;;;;;;;;5036120;28;20036;-81
2023/07/02 00:09:17;;;;;;;7.85;4.60;;;;;;;;;;5001760;28;20032;-81
2023/07/02 00:11:44;;;;;;;9.00;4.80;;;;;;;;;;5035578;28;20086;-80
2023/07/02 00:14:09;;;;;;;9.40;5.18;;;;;;;;;;5017637;28;20452;-80
2023/07/02 00:16:37;;;;;;;11.18;4.60;;;;;;;;;;5018274;28;20033;-80
2023/07/02 00:19:03;;;;;;;9.27;4.60;;;;;;;;;;5018436;28;20131;-81
2023/07/02 00:21:29;;;;;;;8.20;4.85;;;;;;;;;;5035365;28;20103;-81
2023/07/02 00:23:56;;;;;;;10.68;4.55;;;;;;;;;;5035581;28;20072;-81
2023/07/02 00:26:25;;;;;;;10.70;4.45;;;;;;;;;;5035324;28;20065;-80
2023/07/02 00:28:52;;;;;;;10.30;5.45;;;;;;;;;;5017881;28;20030;-80
2023/07/02 00:31:18;;;;;;;17.50;5.03;;;;;;;;;;5001438;28;20413;-80
2023/07/02 00:33:43;;;;;;;11.50;4.75;;;;;;;;;;5001609;28;20132;-79
2023/07/02 00:36:13;;;;;;;10.68;4.90;;;;;;;;;;5017494;28;20116;-79
2023/07/02 00:38:40;;;;;;;14.95;4.93;;;;;;;;;;5035486;28;20075;-80
2023/07/02 00:41:06;;;;;;;9.05;4.47;;;;;;;;;;5017149;28;20143;-81
2023/07/02 00:43:31;;;;;;;12.65;4.53;;;;;;;;;;5017546;28;20052;-81
2023/07/02 00:45:57;;;;;;;11.68;4.70;;;;;;;;;;5017359;28;20029;-80
2023/07/02 00:48:23;;;;;;;11.50;4.53;;;;;;;;;;5000922;28;20052;-80
2023/07/02 00:50:48;;;;;;;12.80;5.07;;;;;;;;;;5000405;28;20053;-80
2023/07/02 00:53:14;;;;;;;9.68;5.22;;;;;;;;;;5034772;28;20060;-79
2023/07/02 00:55:39;;;;;;;12.05;4.97;;;;;;;;;;5017389;28;20140;-80
2023/07/02 00:58:04;;;;;;;11.85;4.93;;;;;;;;;;5035448;28;20523;-80
2023/07/02 01:00:30;;;;;;;14.50;5.47;;;;;;;;;;5016965;28;20104;-80
2023/07/02 01:02:59;;;;;;;12.57;5.55;;;;;;;;;;5017008;28;20071;-80
2023/07/02 01:05:35;;;;;;;8.45;5.15;;;;;;;;;;5017383;28;20029;-80
2023/07/02 01:08:04;;;;;;;12.18;4.93;;;;;;;;;;5034897;28;20029;-80
2023/07/02 01:10:30;;;;;;;11.95;5.13;;;;;;;;;;5016683;28;20031;-80
2023/07/02 01:12:57;;;;;;;10.85;5.60;;;;;;;;;;5017117;28;20021;-80
2023/07/02 01:15:22;;;;;;;10.55;4.78;;;;;;;;;;5000633;28;20037;-80
2023/07/02 01:17:48;;;;;;;10.73;5.22;;;;;;;;;;5000991;28;20029;-80
2023/07/02 01:20:14;;;;;;;13.23;5.40;;;;;;;;;;5017087;28;20022;-80
2023/07/02 01:22:39;;;;;;;9.70;5.15;;;;;;;;;;5000548;28;20025;-80
2023/07/02 01:25:05;;;;;;;14.35;5.45;;;;;;;;;;4984107;28;20025;-80
2023/07/02 01:27:31;;;;;;;20.48;5.20;;;;;;;;;;5000672;28;20034;-80
2023/07/02 01:29:56;;;;;;;11.95;4.65;;;;;;;;;;5000246;28;20029;-80
2023/07/02 01:32:22;;;;;;;11.93;4.97;;;;;;;;;;5016664;28;20036;-80
2023/07/02 01:34:48;;;;;;;9.18;4.30;;;;;;;;;;5034355;28;20039;-80
2023/07/02 01:37:17;;;;;;;14.30;4.72;;;;;;;;;;5016905;28;20033;-80
2023/07/02 01:39:43;;;;;;;9.50;4.65;;;;;;;;;;5001023;28;20025;-80
2023/07/02 01:42:10;;;;;;;7.88;4.20;;;;;;;;;;5034540;28;20079;-80
2023/07/02 01:44:36;;;;;;;8.93;4.43;;;;;;;;;;5000290;28;20112;-80
2023/07/02 01:47:01;;;;;;;9.63;4.43;;;;;;;;;;5016359;28;20116;-81
2023/07/02 01:49:27;;;;;;;12.93;4.15;;;;;;;;;;5000298;28;20029;-80
2023/07/02 01:51:53;;;;;;;11.70;4.30;;;;;;;;;;5016483;28;20069;-80
2023/07/02 01:54:19;;;;;;;9.35;4.40;;;;;;;;;;5033688;28;20424;-80
2023/07/02 01:56:44;;;;;;;7.80;4.53;;;;;;;;;;5034209;28;20038;-80
2023/07/02 01:59:09;;;;;;;9.05;4.78;;;;;;;;;;5016702;28;20457;-80
2023/07/02 02:01:35;;;;;;;11.25;4.60;;;;;;;;;;5016268;28;20044;-80
2023/07/02 02:04:00;;;;;;;13.38;4.95;;;;;;;;;;5035636;28;20044;-80
2023/07/02 02:06:26;;;;;;;11.00;4.28;;;;;;;;;;5020376;28;20049;-80
2023/07/02 02:08:51;;;;;;;13.30;4.20;;;;;;;;;;5037542;28;20024;-80
2023/07/02 02:11:17;;;;;;;9.20;4.68;;;;;;;;;;5020497;28;20091;-80
2023/07/02 02:13:42;;;;;;;14.30;5.10;;;;;;;;;;5037862;28;20083;-81
2023/07/02 02:16:07;;;;;;;9.68;4.90;;;;;;;;;;5037740;28;20029;-80
2023/07/02 02:18:33;;;;;;;19.50;6.05;;;;;;;;;;5020672;28;20030;-80
2023/07/02 02:20:58;;;;;;;14.27;6.13;;;;;;;;;;5020015;28;20032;-80
2023/07/02 02:23:24;;;;;;;14.20;6.25;;;;;;;;;;5003256;28;20422;-81
2023/07/02 02:25:49;;;;;;;11.75;6.90;;;;;;;;;;5019900;28;20124;-81
2023/07/02 02:28:14;;;;;;;14.35;7.38;;;;;;;;;;5019843;28;20029;-81
2023/07/02 02:30:40;;;;;;;15.50;8.55;;;;;;;;;;5019641;28;20029;-80
2023/07/02 02:33:05;;;;;;;18.33;10.52;;;;;;;;;;5003515;28;20065;-80
2023/07/02 02:35:31;;;;;;;17.60;10.65;;;;;;;;;;5019436;28;20033;-81
2023/07/02 02:37:56;;;;;;;27.13;10.93;;;;;;;;;;5019664;28;20030;-81
2023/07/02 02:40:22;;;;;;;15.27;10.85;;;;;;;;;;5019602;28;20034;-81
2023/07/02 02:42:47;;;;;;;23.83;11.82;;;;;;;;;;5003122;28;20112;-81
2023/07/02 02:45:12;;;;;;;16.65;11.63;;;;;;;;;;5037070;28;20110;-80
2023/07/02 02:47:38;;;;;;;18.40;10.15;;;;;;;;;;5037145;28;20117;-81
2023/07/02 02:50:04;;;;;;;19.30;10.27;;;;;;;;;;5037126;28;20032;-81
2023/07/02 02:52:29;;;;;;;16.27;8.82;;;;;;;;;;5018974;28;20534;-80
2023/07/02 02:54:55;;;;;;;13.95;9.40;;;;;;;;;;5003173;28;20025;-80
2023/07/02 02:57:20;;;;;;;21.63;10.23;;;;;;;;;;5037499;28;20034;-80
2023/07/02 02:59:46;;;;;;;18.02;8.98;;;;;;;;;;5037040;28;20475;-80
2023/07/02 03:02:11;;;;;;;21.55;9.13;;;;;;;;;;5019428;28;20360;-81
2023/07/02 03:04:39;;;;;;;18.52;10.02;;;;;;;;;;5036940;28;20096;-80
2023/07/02 03:07:06;;;;;;;22.27;9.80;;;;;;;;;;5036417;28;20099;-81
2023/07/02 03:09:32;;;;;;;17.13;9.30;;;;;;;;;;5003624;28;20099;-80
2023/07/02 03:11:57;;;;;;;16.60;8.57;;;;;;;;;;5019078;28;20471;-80
2023/07/02 03:14:23;;;;;;;18.92;8.52;;;;;;;;;;5025427;28;20509;-79
2023/07/02 03:16:48;;;;;;;15.45;8.05;;;;;;;;;;5025547;28;20065;-79
2023/07/02 03:19:15;;;;;;;11.10;7.50;;;;;;;;;;5046674;28;20053;-80
2023/07/02 03:21:42;;;;;;;11.55;6.65;;;;;;;;;;5025166;28;20026;-81
2023/07/02 03:24:10;;;;;;;14.88;6.35;;;;;;;;;;5024449;28;20053;-80
2023/07/02 03:26:36;;;;;;;15.32;6.70;;;;;;;;;;5040692;28;20017;-80
2023/07/02 03:29:01;;;;;;;17.83;6.60;;;;;;;;;;5059505;28;20081;-81
2023/07/02 03:31:27;;;;;;;13.20;6.43;;;;;;;;;;5030691;28;20032;-80
2023/07/02 03:33:52;;;;;;;17.85;6.40;;;;;;;;;;5018536;28;20033;-80
2023/07/02 03:36:17;;;;;;;15.07;6.07;;;;;;;;;;5018051;28;20041;-80
2023/07/02 03:38:43;;;;;;;15.07;5.80;;;;;;;;;;5019123;28;20036;-79
2023/07/02 03:41:08;;;;;;;15.95;5.85;;;;;;;;;;5018937;28;20029;-80
2023/07/02 03:43:34;;;;;;;16.02;5.95;;;;;;;;;;5018271;28;20030;-80
2023/07/02 03:45:59;;;;;;;9.73;5.65;;;;;;;;;;5002123;28;20025;-81
2023/07/02 03:48:25;;;;;;;14.85;6.00;;;;;;;;;;5035943;28;20029;-81
2023/07/02 03:50:50;;;;;;;20.88;5.82;;;;;;;;;;5017944;28;20419;-81
2023/07/02 03:53:16;;;;;;;24.52;5.82;;;;;;;;;;5014761;28;20041;-81
2023/07/02 03:55:41;;;;;;;25.52;6.40;;;;;;;;;;5015939;28;20373;-80
2023/07/02 03:58:07;;;;;;;22.60;5.95;;;;;;;;;;4998929;28;20388;-80
2023/07/02 04:00:32;;;;;;;15.60;5.10;;;;;;;;;;4998566;28;20462;-80
2023/07/02 04:02:57;;;;;;;13.05;5.65;;;;;;;;;;5014860;28;20026;-80
2023/07/02 04:05:23;;;;;;;17.55;5.93;;;;;;;;;;4998097;28;20100;-81
2023/07/02 04:07:48;;;;;;;13.10;5.80;;;;;;;;;;5015757;28;20025;-80
2023/07/02 04:10:14;;;;;;;18.65;5.78;;;;;;;;;;5014958;28;20327;-80
2023/07/02 04:12:39;;;;;;;12.35;5.50;;;;;;;;;;5015726;28;20029;-79
2023/07/02 04:15:05;;;;;;;15.77;5.95;;;;;;;;;;5030914;28;20041;-80
2023/07/02 04:17:31;;;;;;;16.35;5.32;;;;;;;;;;4981807;28;20439;-79
2023/07/02 04:19:57;;;;;;;13.80;5.38;;;;;;;;;;5015691;28;20124;-80
2023/07/02 04:22:22;;;;;;;18.10;5.68;;;;;;;;;;5014175;28;20438;-80
2023/07/02 04:24:48;;;;;;;13.60;6.07;;;;;;;;;;5015564;28;20025;-80
2023/07/02 04:27:17;;;;;;;14.48;6.05;;;;;;;;;;4996919;28;20066;-80
2023/07/02 04:29:43;;;;;;;15.27;6.32;;;;;;;;;;5014082;28;20030;-79
2023/07/02 04:32:09;;;;;;;21.15;6.15;;;;;;;;;;5015473;28;20030;-80
2023/07/02 04:34:36;;;;;;;22.30;5.95;;;;;;;;;;5015077;28;20109;-80
2023/07/02 04:37:03;;;;;;;21.00;6.60;;;;;;;;;;5015090;28;20124;-79
2023/07/02 04:39:28;;;;;;;15.63;6.30;;;;;;;;;;5015998;28;20036;-80
2023/07/02 04:41:54;;;;;;;20.88;6.45;;;;;;;;;;5015202;28;20018;-80
2023/07/02 04:44:22;;;;;;;13.60;5.80;;;;;;;;;;5015171;28;20109;-80
2023/07/02 04:46:48;;;;;;;17.77;5.72;;;;;;;;;;5015118;28;20026;-80
2023/07/02 04:49:14;;;;;;;13.80;5.38;;;;;;;;;;5014988;28;20116;-80
2023/07/02 04:51:40;;;;;;;22.55;6.32;;;;;;;;;;4998396;28;20033;-80
2023/07/02 04:54:05;;;;;;;16.42;5.72;;;;;;;;;;5034604;28;20036;-80
2023/07/02 04:56:30;;;;;;;11.80;5.97;;;;;;;;;;5034458;28;20124;-80
2023/07/02 04:58:56;;;;;;;10.73;5.47;;;;;;;;;;5035015;28;20064;-80
2023/07/02 05:01:21;;;;;;;22.00;6.13;;;;;;;;;;5034916;28;20033;-81
2023/07/02 05:03:47;;;;;;;15.20;5.63;;;;;;;;;;5016643;28;20021;-80
2023/07/02 05:06:12;;;;;;;12.52;5.85;;;;;;;;;;5017659;28;20051;-80
2023/07/02 05:08:38;;;;;;;15.48;5.70;;;;;;;;;;5034360;28;20033;-80
2023/07/02 05:11:03;;;;;;;15.27;5.70;;;;;;;;;;5034862;28;20085;-80
2023/07/02 05:13:29;;;;;;;14.75;5.53;;;;;;;;;;5034293;28;20372;-80
2023/07/02 05:15:54;;;;;;;11.02;5.22;;;;;;;;;;5034232;28;20025;-80
2023/07/02 05:18:19;;;;;;;16.38;5.82;;;;;;;;;;5034418;28;20021;-81
2023/07/02 05:20:45;;;;;;;15.60;6.00;;;;;;;;;;5034844;28;20125;-80
2023/07/02 05:23:10;;;;;;;20.85;5.80;;;;;;;;;;5034219;28;20021;-80
2023/07/02 05:25:36;;;;;;;14.25;5.30;;;;;;;;;;5034130;28;20139;-80
2023/07/02 05:28:01;;;;;;;10.25;5.45;;;;;;;;;;5034066;28;20036;-80
2023/07/02 05:30:26;;;;;;;14.80;5.65;;;;;;;;;;5016626;28;20353;-80
2023/07/02 05:32:52;;;;;;;13.30;5.40;;;;;;;;;;5016349;28;20376;-80
2023/07/02 05:35:18;;;;;;;15.77;5.78;;;;;;;;;;5016427;28;20106;-80
2023/07/02 05:37:45;;;;;;;9.10;5.28;;;;;;;;;;5000073;28;20372;-80
2023/07/02 05:40:11;;;;;;;10.68;5.38;;;;;;;;;;5017528;28;20030;-81
2023/07/02 05:42:37;;;;;;;21.15;5.72;;;;;;;;;;5000265;28;20037;-81
2023/07/02 05:45:03;;;;;;;11.70;5.13;;;;;;;;;;5034187;28;20029;-81
2023/07/02 05:47:28;;;;;;;10.93;5.72;;;;;;;;;;5015912;28;20365;-81
2023/07/02 05:49:54;;;;;;;11.13;5.68;;;;;;;;;;5016552;28;20029;-81
2023/07/02 05:52:19;;;;;;;15.75;5.70;;;;;;;;;;5012745;28;20050;-81
2023/07/02 05:54:44;;;;;;;11.77;5.95;;;;;;;;;;5014091;28;20030;-81
2023/07/02 05:57:10;;;;;;;12.60;6.38;;;;;;;;;;5014020;28;20049;-80
2023/07/02 05:59:35;;;;;;;12.93;5.85;;;;;;;;;;5013541;28;20038;-82
2023/07/02 06:02:01;;;;;;;10.57;5.82;;;;;;;;;;5012894;28;20109;-81
2023/07/02 06:04:26;;;;;;;19.95;6.57;;;;;;;;;;5013977;28;20058;-81
2023/07/02 06:06:52;;;;;;;14.85;6.70;;;;;;;;;;5013914;28;20076;-81
2023/07/02 06:09:17;;;;;;;15.45;6.75;;;;;;;;;;4996699;28;20033;-81
2023/07/02 06:11:42;;;;;;;15.02;6.95;;;;;;;;;;5014409;28;20413;-81
2023/07/02 06:14:08;;;;;;;17.45;7.35;;;;;;;;;;5012865;28;20057;-81
2023/07/02 06:16:34;;;;;;;19.35;8.45;;;;;;;;;;5012529;28;20033;-81
2023/07/02 06:18:59;;;;;;;20.95;8.18;;;;;;;;;;5013129;28;20029;-81
2023/07/02 06:21:29;;;;;;;14.65;7.50;;;;;;;;;;5013340;28;20420;-81
2023/07/02 06:23:54;;;;;;;;;;;;;;;;;;5013479;28;20070;-82
2023/07/02 06:26:20;;;;;;;14.23;7.55;;;;;;;;;;5029229;28;20270;-81
2023/07/02 06:28:46;;;;;;;16.88;7.43;;;;;;;;;;5012633;28;20022;-81
2023/07/02 06:31:12;;;;;;;19.35;7.95;;;;;;;;;;5012531;28;20048;-81
2023/07/02 06:33:41;;;;;;;31.27;9.55;;;;;;;;;;4996437;28;20033;-81
2023/07/02 06:36:07;;;;;;;15.83;8.30;;;;;;;;;;5013859;28;20037;-81
2023/07/02 06:38:33;;;;;;;18.77;7.60;;;;;;;;;;5012455;28;20277;-79
2023/07/02 06:40:58;;;;;;;17.27;8.00;;;;;;;;;;5014279;28;20033;-79
2023/07/02 06:43:24;;;;;;;19.25;8.55;;;;;;;;;;5012521;28;20119;-80
2023/07/02 06:45:49;;;;;;;31.65;9.10;;;;;;;;;;5012085;28;20165;-79
2023/07/02 06:48:20;;;;;;;13.10;7.70;;;;;;;;;;5012781;28;20117;-80
2023/07/02 06:50:46;;;;;;;22.63;7.40;;;;;;;;;;4999560;28;20129;-79
2023/07/02 06:53:12;;;;;;;15.30;7.90;;;;;;;;;;5022162;28;20188;-79
2023/07/02 06:55:37;;;;;;;19.90;7.10;;;;;;;;;;5017682;28;20209;-79
2023/07/02 06:58:05;;;;;;;16.80;7.35;;;;;;;;;;5033743;28;20036;-79
2023/07/02 07:00:32;;;;;;;19.27;6.80;;;;;;;;;;5034608;28;20061;-80
2023/07/02 07:02:58;;;;;;;13.38;6.80;;;;;;;;;;5033962;28;20475;-80
2023/07/02 07:05:24;;;;;;;15.93;7.15;;;;;;;;;;5017556;28;20029;-80
2023/07/02 07:07:49;;;;;;;13.50;7.30;;;;;;;;;;5035070;28;20103;-81
2023/07/02 07:10:14;;;;;;;16.40;6.35;;;;;;;;;;5034936;28;20026;-80
2023/07/02 07:12:40;;;;;;;14.95;6.18;;;;;;;;;;5034260;28;20496;-81
2023/07/02 07:15:06;;;;;;;17.55;6.70;;;;;;;;;;5017965;28;20462;-81
2023/07/02 07:17:31;;;;;;;17.20;6.35;;;;;;;;;;5035258;28;20025;-81
2023/07/02 07:19:56;;;;;;;13.27;6.35;;;;;;;;;;5034593;28;20025;-81
2023/07/02 07:22:22;;;;;;;13.23;6.80;;;;;;;;;;5018194;28;20029;-81
2023/07/02 07:24:47;;;;;;;17.58;6.65;;;;;;;;;;5034005;28;20460;-81
2023/07/02 07:27:13;;;;;;;14.75;6.32;;;;;;;;;;5035443;28;20455;-81
2023/07/02 07:29:38;;;;;;;15.00;6.13;;;;;;;;;;5035280;28;20034;-81
2023/07/02 07:32:04;;;;;;;13.50;6.53;;;;;;;;;;5035152;28;20044;-80
2023/07/02 07:34:29;;;;;;;10.93;6.63;;;;;;;;;;5036938;28;20033;-81
2023/07/02 07:36:55;;;;;;;10.88;6.30;;;;;;;;;;5035142;28;20030;-80
2023/07/02 07:39:20;;;;;;;10.52;6.28;;;;;;;;;;5035282;28;20381;-81
2023/07/02 07:41:49;;;;;;;14.65;6.25;;;;;;;;;;5018882;28;20041;-81
2023/07/02 07:44:14;;;;;;;10.80;5.93;;;;;;;;;;5035253;28;20361;-81
2023/07/02 07:46:40;;;;;;;10.48;6.22;;;;;;;;;;5018783;28;20040;-81
2023/07/02 07:49:05;;;;;;;10.50;6.25;;;;;;;;;;5035516;28;20131;-81
2023/07/02 07:51:30;;;;;;;19.02;6.72;;;;;;;;;;5018424;28;20136;-81
2023/07/02 07:53:56;;;;;;;11.70;6.25;;;;;;;;;;5055790;28;20524;-80
2023/07/02 07:56:21;;;;;;;9.90;6.00;;;;;;;;;;5055793;28;20079;-80
2023/07/02 07:58:47;;;;;;;13.40;7.22;;;;;;;;;;5056188;28;20414;-80
2023/07/02 08:01:12;;;;;;;13.80;6.10;;;;;;;;;;5024543;28;20506;-80
2023/07/02 08:03:38;;;;;;;14.88;6.28;;;;;;;;;;5056467;28;20068;-81
2023/07/02 08:06:04;;;;;;;13.27;6.50;;;;;;;;;;5021541;28;20090;-81
2023/07/02 08:08:29;;;;;;;8.65;5.65;;;;;;;;;;5055711;28;20041;-80
2023/07/02 08:10:55;;;;;;;11.20;5.88;;;;;;;;;;5037416;28;20025;-80
2023/07/02 08:13:20;;;;;;;15.85;6.97;;;;;;;;;;5037574;28;20136;-80
2023/07/02 08:15:45;;;;;;;14.32;6.38;;;;;;;;;;5037495;28;20033;-80
2023/07/02 08:18:13;;;;;;;10.27;6.15;;;;;;;;;;5037489;28;20029;-80
2023/07/02 08:20:38;;;;;;;12.50;6.55;;;;;;;;;;5021955;28;20032;-81
2023/07/02 08:23:04;;;;;;;9.25;6.57;;;;;;;;;;5055447;28;20360;-81
2023/07/02 08:25:30;;;;;;;15.45;6.75;;;;;;;;;;5055472;28;20376;-81
2023/07/02 08:27:55;;;;;;;16.38;6.55;;;;;;;;;;5055210;28;20443;-80
2023/07/02 08:30:21;;;;;;;13.15;6.50;;;;;;;;;;5037432;28;20032;-81
2023/07/02 08:32:46;;;;;;;16.20;6.00;;;;;;;;;;5037344;28;20021;-81
2023/07/02 08:35:12;;;;;;;9.40;6.05;;;;;;;;;;5036770;28;20021;-81
2023/07/02 08:37:37;;;;;;;15.45;6.03;;;;;;;;;;5036777;28;20156;-80
2023/07/02 08:40:04;;;;;;;16.40;6.53;;;;;;;;;;5055126;28;20052;-81
2023/07/02 08:42:31;;;;;;;13.07;6.18;;;;;;;;;;5055739;28;20029;-81
2023/07/02 08:44:57;;;;;;;11.98;6.80;;;;;;;;;;5004634;28;20029;-81
2023/07/02 08:47:22;;;;;;;11.13;6.25;;;;;;;;;;5037406;28;20456;-81
2023/07/02 08:49:48;;;;;;;11.63;6.43;;;;;;;;;;5036909;28;20029;-81
2023/07/02 08:52:13;;;;;;;11.90;6.28;;;;;;;;;;5036769;28;20059;-81
2023/07/02 08:54:39;;;;;;;13.60;6.60;;;;;;;;;;5036761;28;20111;-81
2023/07/02 08:57:05;;;;;;;11.57;6.50;;;;;;;;;;5036623;28;20431;-81
2023/07/02 08:59:31;;;;;;;11.20;6.57;;;;;;;;;;5037106;28;20033;-81
2023/07/02 09:01:56;;;;;;;12.45;6.63;;;;;;;;;;5021125;28;20075;-81
2023/07/02 09:04:23;;;;;;;13.30;6.10;;;;;;;;;;5054587;28;20028;-81
2023/07/02 09:07:03;;;;;;;14.20;6.38;;;;;;;;;;5036743;28;20040;-81
2023/07/02 09:09:30;;;;;;;11.57;6.80;;;;;;;;;;5038821;28;20476;-81
2023/07/02 09:11:55;;;;;;;13.70;6.43;;;;;;;;;;5019907;28;20033;-80
2023/07/02 09:14:28;;;;;;;17.73;6.75;;;;;;;;;;5036447;28;20029;-81
2023/07/02 09:17:08;;;;;;;19.90;6.68;;;;;;;;;;5036376;28;20091;-81
2023/07/02 09:19:34;;;;;;;10.38;6.22;;;;;;;;;;5004470;28;20415;-81
2023/07/02 09:22:00;;;;;;;7.85;5.82;;;;;;;;;;5021226;28;20032;-82
2023/07/02 09:24:26;;;;;;;12.05;5.63;;;;;;;;;;5053877;28;20029;-80
2023/07/02 09:26:59;;;;;;;12.55;6.00;;;;;;;;;;5003659;28;20039;-81
2023/07/02 09:29:28;;;;;;;9.88;5.95;;;;;;;;;;5036399;28;20090;-80
2023/07/02 09:31:54;;;;;;;12.93;6.30;;;;;;;;;;5004334;28;20029;-80
2023/07/02 09:34:19;;;;;;;8.52;5.97;;;;;;;;;;5036752;28;20136;-80
2023/07/02 09:36:44;;;;;;;13.45;5.95;;;;;;;;;;5036066;28;20036;-81
2023/07/02 09:39:14;;;;;;;13.73;6.53;;;;;;;;;;5035987;28;20039;-81
2023/07/02 09:41:40;;;;;;;18.67;6.40;;;;;;;;;;5037060;28;20040;-81
2023/07/02 09:44:07;;;;;;;10.43;6.18;;;;;;;;;;5036021;28;20033;-81
2023/07/02 09:46:32;;;;;;;10.10;6.13;;;;;;;;;;5019872;28;20455;-82
2023/07/02 09:48:58;;;;;;;14.45;6.43;;;;;;;;;;5036005;28;20033;-81
2023/07/02 09:51:23;;;;;;;13.10;6.38;;;;;;;;;;5053713;28;20024;-81
2023/07/02 09:53:49;;;;;;;9.73;6.30;;;;;;;;;;5019209;28;20497;-81
2023/07/02 09:56:14;;;;;;;13.48;7.18;;;;;;;;;;5036119;28;20474;-81
2023/07/02 09:58:39;;;;;;;12.30;6.47;;;;;;;;;;5019533;28;20455;-81
2023/07/02 10:01:05;;;;;;;10.07;6.28;;;;;;;;;;5036473;28;20672;-82
2023/07/02 10:03:31;;;;;;;11.50;5.85;;;;;;;;;;5036504;28;20068;-80
2023/07/02 10:06:06;;;;;;;10.70;6.57;;;;;;;;;;5019531;28;20024;-80
2023/07/02 10:08:32;;;;;;;10.93;6.60;;;;;;;;;;5019077;28;20428;-79
2023/07/02 10:11:33;;;;;;;12.98;6.45;;;;;;;;;;5035924;28;20072;-80
2023/07/02 10:13:59;;;;;;;11.00;6.63;;;;;;;;;;5039770;28;20036;-81
2023/07/02 10:16:27;;;;;;;10.25;6.40;;;;;;;;;;5035707;28;20371;-80
2023/07/02 10:18:52;;;;;;;11.10;6.20;;;;;;;;;;5036026;28;20025;-81
2023/07/02 10:21:17;;;;;;;10.15;6.18;;;;;;;;;;5036149;28;20051;-81
2023/07/02 10:23:43;;;;;;;9.55;6.60;;;;;;;;;;5034973;28;20032;-81
2023/07/02 10:26:18;;;;;;;14.45;6.78;;;;;;;;;;5022064;28;20029;-81
2023/07/02 10:28:56;;;;;;;9.82;6.07;;;;;;;;;;5039041;28;20031;-81
2023/07/02 10:31:21;;;;;;;11.23;7.18;;;;;;;;;;5022634;28;20111;-81
2023/07/02 10:33:47;;;;;;;11.77;7.00;;;;;;;;;;5038888;28;20148;-81
2023/07/02 10:36:20;;;;;;;12.85;6.30;;;;;;;;;;5021910;28;20087;-80
2023/07/02 10:38:46;;;;;;;9.20;5.80;;;;;;;;;;5039513;28;20712;-80
2023/07/02 10:41:11;;;;;;;8.68;5.63;;;;;;;;;;5039590;28;20452;-81
2023/07/02 10:43:37;;;;;;;10.38;7.00;;;;;;;;;;5058284;28;20052;-82
2023/07/02 10:46:02;;;;;;;9.43;6.30;;;;;;;;;;5039405;28;20035;-81
2023/07/02 10:48:28;;;;;;;7.80;6.30;;;;;;;;;;5039182;28;20079;-81
2023/07/02 10:50:53;;;;;;;9.02;6.00;;;;;;;;;;5038930;28;20371;-80
2023/07/02 10:53:19;;;;;;;10.95;6.18;;;;;;;;;;5056702;28;20459;-80
2023/07/02 10:55:45;;;;;;;12.98;6.75;;;;;;;;;;5056748;28;20131;-80
2023/07/02 10:58:11;;;;;;;8.82;6.43;;;;;;;;;;5006669;28;20075;-80
2023/07/02 11:00:46;;;;;;;9.20;6.05;;;;;;;;;;5023485;28;20021;-81
2023/07/02 11:03:19;;;;;;;12.10;5.60;;;;;;;;;;5022653;28;20029;-81
2023/07/02 11:05:44;;;;;;;10.43;6.45;;;;;;;;;;5038836;28;20037;-82
2023/07/02 11:08:10;;;;;;;9.90;6.05;;;;;;;;;;5023008;28;20420;-81
2023/07/02 11:10:35;;;;;;;10.68;5.93;;;;;;;;;;5056741;28;20033;-81
2023/07/02 11:13:13;;;;;;;11.77;5.93;;;;;;;;;;5056783;28;20108;-81
2023/07/02 11:15:40;;;;;;;8.20;5.97;;;;;;;;;;5039341;28;20056;-81
2023/07/02 11:18:11;;;;;;;8.55;6.03;;;;;;;;;;5038577;28;20047;-80
2023/07/02 11:20:37;;;;;;;12.02;5.82;;;;;;;;;;5057127;28;20442;-80
2023/07/02 11:23:03;;;;;;;7.80;6.07;;;;;;;;;;5039467;28;20397;-81
2023/07/02 11:25:28;;;;;;;9.48;6.00;;;;;;;;;;5022110;28;20071;-81
2023/07/02 11:28:03;;;;;;;7.75;5.85;;;;;;;;;;5056252;28;20033;-81
2023/07/02 11:30:29;;;;;;;14.02;6.32;;;;;;;;;;5056231;28;20054;-81
2023/07/02 11:32:55;;;;;;;9.60;6.05;;;;;;;;;;5038374;28;20048;-81
2023/07/02 11:35:20;;;;;;;9.13;5.85;;;;;;;;;;5021689;28;20523;-80
2023/07/02 11:37:48;;;;;;;8.35;6.00;;;;;;;;;;5038598;28;20161;-80
2023/07/02 11:40:14;;;;;;;12.00;6.57;;;;;;;;;;5039016;28;20397;-80
2023/07/02 11:42:39;;;;;;;9.65;6.68;;;;;;;;;;5039312;28;20025;-81
2023/07/02 11:45:05;;;;;;;9.48;6.53;;;;;;;;;;5038539;28;20444;-81
2023/07/02 11:47:30;;;;;;;9.40;6.25;;;;;;;;;;5056298;28;20044;-81
2023/07/02 11:49:56;;;;;;;10.02;6.53;;;;;;;;;;5037976;28;20096;-80
2023/07/02 11:52:21;;;;;;;9.20;5.80;;;;;;;;;;5037832;28;20062;-81
2023/07/02 11:54:47;;;;;;;9.13;6.10;;;;;;;;;;5038030;28;20032;-81
2023/07/02 11:57:13;;;;;;;10.02;6.28;;;;;;;;;;5037928;28;20029;-80
2023/07/02 11:59:38;;;;;;;9.30;6.43;;;;;;;;;;5021666;28;20025;-80
2023/07/02 12:02:04;;;;;;;11.77;6.53;;;;;;;;;;5039127;28;20517;-81
2023/07/02 12:04:29;;;;;;;8.35;6.38;;;;;;;;;;5055566;28;20029;-81
2023/07/02 12:06:55;;;;;;;8.82;6.70;;;;;;;;;;5038193;28;20029;-82
2023/07/02 12:09:20;;;;;;;11.35;6.72;;;;;;;;;;5037979;28;20053;-80
2023/07/02 12:11:45;;;;;;;19.58;7.80;;;;;;;;;;5037713;28;20025;-78
2023/07/02 12:14:12;;;;;;;14.52;6.40;;;;;;;;;;5037664;28;20120;-80
2023/07/02 12:16:37;;;;;;;8.43;5.03;;;;;;;;;;5055563;28;20131;-79
2023/07/02 12:19:03;;;;;;;8.38;4.60;;;;;;;;;;5055186;28;20068;-79
2023/07/02 12:21:28;;;;;;;11.95;4.50;;;;;;;;;;5039221;28;20071;-80
2023/07/02 12:23:54;;;;;;;9.15;4.00;;;;;;;;;;5055356;28;20025;-81
2023/07/02 12:26:19;;;;;;;8.95;4.75;;;;;;;;;;5055185;28;20029;-82
2023/07/02 12:28:44;;;;;;;7.45;4.63;;;;;;;;;;5037450;28;20113;-80
2023/07/02 12:31:12;;;;;;;14.13;5.13;;;;;;;;;;5037641;28;20090;-79
2023/07/02 12:33:38;;;;;;;10.10;5.20;;;;;;;;;;5021100;28;20033;-81
2023/07/02 12:36:03;;;;;;;9.43;5.60;;;;;;;;;;5054990;28;20040;-82
2023/07/02 12:38:29;;;;;;;11.02;5.40;;;;;;;;;;5037227;28;20064;-81
2023/07/02 12:40:54;;;;;;;12.52;6.13;;;;;;;;;;5037687;28;20033;-81
2023/07/02 12:43:20;;;;;;;12.32;6.32;;;;;;;;;;5021348;28;20112;-81
2023/07/02 12:45:45;;;;;;;10.98;6.55;;;;;;;;;;5054837;28;20068;-81
2023/07/02 12:48:11;;;;;;;11.07;6.70;;;;;;;;;;5053852;28;20060;-81
2023/07/02 12:50:37;;;;;;;11.30;6.57;;;;;;;;;;5020544;28;20060;-81
2023/07/02 12:53:03;;;;;;;10.07;6.40;;;;;;;;;;5020520;28;20434;-81
2023/07/02 12:55:28;;;;;;;10.68;7.10;;;;;;;;;;5054428;28;20056;-82
2023/07/02 12:57:54;;;;;;;11.85;7.32;;;;;;;;;;5020343;28;20068;-82
2023/07/02 13:00:20;;;;;;;10.90;7.22;;;;;;;;;;5036817;28;20033;-81
2023/07/02 13:02:46;;;;;;;10.63;7.60;;;;;;;;;;5038294;28;20110;-82
2023/07/02 13:05:13;;;;;;;9.80;7.38;;;;;;;;;;5020642;28;20383;-82
2023/07/02 13:07:38;;;;;;;11.75;8.45;;;;;;;;;;5037129;28;20044;-82
2023/07/02 13:10:04;;;;;;;13.30;9.18;;;;;;;;;;5054412;28;20036;-82
2023/07/02 13:12:30;;;;;;;12.45;8.60;;;;;;;;;;5036708;28;20036;-81
2023/07/02 13:14:55;;;;;;;12.55;8.63;;;;;;;;;;5054400;28;20021;-81
2023/07/02 13:17:20;;;;;;;13.25;9.02;;;;;;;;;;5054166;28;20047;-81
2023/07/02 13:19:46;;;;;;;14.43;9.50;;;;;;;;;;5054182;28;20029;-80
2023/07/02 13:22:12;;;;;;;14.68;9.63;;;;;;;;;;5038110;28;20025;-81
2023/07/02 13:24:37;;;;;;;15.57;10.85;;;;;;;;;;5054150;28;20467;-82
2023/07/02 13:27:04;;;;;;;13.88;10.20;;;;;;;;;;5036315;28;20021;-81
2023/07/02 13:29:30;;;;;;;13.35;10.40;;;;;;;;;;5054036;28;20021;-81
2023/07/02 13:31:56;;;;;;;15.32;10.77;;;;;;;;;;5036400;28;20032;-81
2023/07/02 13:34:21;;;;;;;15.30;11.55;;;;;;;;;;5036166;28;20367;-81
2023/07/02 13:36:47;;;;;;;16.65;10.80;;;;;;;;;;5036302;28;20038;-82
2023/07/02 13:39:12;;;;;;;18.10;11.73;;;;;;;;;;5036154;28;20021;-81
2023/07/02 13:41:38;;;;;;;14.93;11.07;;;;;;;;;;5054614;28;20078;-82
2023/07/02 13:44:03;;;;;;;14.02;9.98;;;;;;;;;;5054247;28;20074;-81
2023/07/02 13:46:28;;;;;;;13.52;9.55;;;;;;;;;;5053920;28;20360;-81
2023/07/02 13:48:54;;;;;;;14.65;10.07;;;;;;;;;;5054140;28;20047;-81
2023/07/02 13:51:19;;;;;;;15.77;11.00;;;;;;;;;;5053856;28;20057;-81
2023/07/02 13:53:45;;;;;;;14.43;11.68;;;;;;;;;;5036344;28;20053;-80
2023/07/02 13:56:10;;;;;;;14.93;10.27;;;;;;;;;;5053603;28;20450;-80
2023/07/02 13:58:45;;;;;;;13.95;10.52;;;;;;;;;;5037642;28;20127;-80
2023/07/02 14:01:11;;;;;;;17.67;11.18;;;;;;;;;;5045352;28;20371;-81
2023/07/02 14:03:36;;;;;;;17.90;10.07;;;;;;;;;;5027324;28;20024;-80
2023/07/02 14:06:02;;;;;;;12.20;8.85;;;;;;;;;;5042952;28;20028;-82
2023/07/02 14:08:27;;;;;;;11.25;8.82;;;;;;;;;;5060644;28;20414;-81
2023/07/02 14:10:53;;;;;;;15.55;7.55;;;;;;;;;;5042865;28;20403;-81
2023/07/02 14:13:19;;;;;;;11.32;7.15;;;;;;;;;;5061752;28;20037;-80
2023/07/02 14:15:44;;;;;;;11.07;6.63;;;;;;;;;;5077480;28;20025;-80
2023/07/02 14:18:09;;;;;;;8.90;5.82;;;;;;;;;;5057588;28;20029;-81
2023/07/02 14:20:35;;;;;;;11.23;6.07;;;;;;;;;;5071933;28;20392;-82
2023/07/02 14:23:00;;;;;;;10.73;5.82;;;;;;;;;;5074442;28;20032;-79
2023/07/02 14:25:26;;;;;;;11.38;6.13;;;;;;;;;;5057402;28;20036;-81